Strona główna
METAR-TAF:

METAR-TAF

Lotnisko :

Rouen, Francja

Szerokość geograficzna: 49-23N, Długość geograficzna: 001-11E, wysokość: 157 m

Aktualna obserwacja pogody

Raport powstał 26 minut temu, godzina 08:30 UTC
Wiatr 9 kt od południowy zachód
Temperatura 5°C
Wilgotność 87%
Ciśnienie 1002 hPa
Widzialność 10 km lub więcej
Brak chmur poniżej 1500 m i brak chmur cumulonimbus

METAR: LFOP 150830Z AUTO 22009KT CAVOK 05/03 Q1002 NOSIG

czas: 09:56 (08:56 UTC)

Prognoza

Raport powstał 3 godziny i 56 minut temu, godzina 05:00 UTC
Prognoza ważna od 15 godzina 06 UTC do 16 godzina 06 UTC
Wiatr 13 kt od południowo-południowy zachód
Widzialność 10 km lub więcej
Rozproszone chmury na wysokości 3000 ft
Przejściowo
od 15 godzina 06 UTC do 15 godzina 08 UTC
Wiatr 15 kt od zachodnio-południowy zachód w porywach dochodzący do 25 kt
Prawdopodobieństwo 40% :
Przejściowo
od 16 godzina 00 UTC do 16 godzina 06 UTC
Przerywane chmury na wysokości 700 ft

TAF: LFOP 150500Z 1506/1606 21013KT 9999 SCT030 TEMPO 1506/1508 24015G25KT PROB40 TEMPO 1600/1606 BKN007

Obserwacja i prognoza pogody dla ponad 4000 lotnisk (raport METAR i TAF).

Dostępne stacje oznaczono żółtymi i czerwonymi punktami na mapie.

Najedź kursorem aby zobaczyć nazwę stacji.

Kliknij aby zobaczyć obserwacje i prognozy pogody.

Aby zmienić mapę: kliknij na zielony przycisk z czarnym krzyżykiem, aby powiększyć; na zielony przycisk z myślnikiem, aby pomniejszyć; na zielone strzałki, aby przejść do map sąsiednich.


METAR-TAF: